sensor_id;sensor_type;location;lat;lon;timestamp;P1;durP1;ratioP1;P2;durP2;ratioP2
21876;SDS011;11103;43.788;23.710;2023-05-19T00:01:10;20.77;;;15.27;;
21876;SDS011;11103;43.788;23.710;2023-05-19T00:03:51;18.63;;;14.13;;
21876;SDS011;11103;43.788;23.710;2023-05-19T00:06:28;23.40;;;14.60;;
21876;SDS011;11103;43.788;23.710;2023-05-19T00:08:58;18.90;;;15.07;;
21876;SDS011;11103;43.788;23.710;2023-05-19T00:11:25;18.40;;;14.00;;
21876;SDS011;11103;43.788;23.710;2023-05-19T00:13:52;20.57;;;14.10;;
21876;SDS011;11103;43.788;23.710;2023-05-19T00:16:19;20.23;;;14.97;;
21876;SDS011;11103;43.788;23.710;2023-05-19T00:18:45;24.33;;;14.83;;
21876;SDS011;11103;43.788;23.710;2023-05-19T00:21:12;20.23;;;15.50;;
21876;SDS011;11103;43.788;23.710;2023-05-19T00:23:37;21.47;;;15.33;;
21876;SDS011;11103;43.788;23.710;2023-05-19T00:26:02;20.57;;;14.47;;
21876;SDS011;11103;43.788;23.710;2023-05-19T00:28:28;20.13;;;15.80;;
21876;SDS011;11103;43.788;23.710;2023-05-19T00:30:53;21.37;;;15.57;;
21876;SDS011;11103;43.788;23.710;2023-05-19T00:33:20;21.20;;;14.93;;
21876;SDS011;11103;43.788;23.710;2023-05-19T00:35:45;22.90;;;14.17;;
21876;SDS011;11103;43.788;23.710;2023-05-19T00:38:10;21.33;;;15.57;;
21876;SDS011;11103;43.788;23.710;2023-05-19T00:40:36;25.30;;;15.60;;
21876;SDS011;11103;43.788;23.710;2023-05-19T00:43:01;22.80;;;15.43;;
21876;SDS011;11103;43.788;23.710;2023-05-19T00:45:29;23.33;;;16.10;;
21876;SDS011;11103;43.788;23.710;2023-05-19T00:47:54;22.97;;;15.83;;
21876;SDS011;11103;43.788;23.710;2023-05-19T00:50:20;22.10;;;16.03;;
21876;SDS011;11103;43.788;23.710;2023-05-19T00:52:45;24.73;;;15.87;;
21876;SDS011;11103;43.788;23.710;2023-05-19T00:55:11;19.63;;;14.47;;
21876;SDS011;11103;43.788;23.710;2023-05-19T00:57:37;23.30;;;14.53;;
21876;SDS011;11103;43.788;23.710;2023-05-19T01:00:03;22.20;;;15.90;;
21876;SDS011;11103;43.788;23.710;2023-05-19T01:02:29;22.27;;;16.10;;
21876;SDS011;11103;43.788;23.710;2023-05-19T01:04:56;28.90;;;15.40;;
21876;SDS011;11103;43.788;23.710;2023-05-19T01:07:22;23.00;;;15.77;;
21876;SDS011;11103;43.788;23.710;2023-05-19T01:09:49;21.23;;;15.00;;
21876;SDS011;11103;43.788;23.710;2023-05-19T01:12:15;21.80;;;15.30;;
21876;SDS011;11103;43.788;23.710;2023-05-19T01:14:41;23.70;;;16.13;;
21876;SDS011;11103;43.788;23.710;2023-05-19T01:17:18;25.93;;;17.13;;
21876;SDS011;11103;43.788;23.710;2023-05-19T01:20:02;22.43;;;16.10;;
21876;SDS011;11103;43.788;23.710;2023-05-19T01:30:42;24.00;;;16.27;;
21876;SDS011;11103;43.788;23.710;2023-05-19T01:33:11;23.63;;;15.67;;
21876;SDS011;11103;43.788;23.710;2023-05-19T01:35:39;24.10;;;16.80;;
21876;SDS011;11103;43.788;23.710;2023-05-19T01:38:08;25.13;;;16.80;;
21876;SDS011;11103;43.788;23.710;2023-05-19T01:40:34;21.60;;;15.90;;
21876;SDS011;11103;43.788;23.710;2023-05-19T01:43:02;23.43;;;16.13;;
21876;SDS011;11103;43.788;23.710;2023-05-19T01:45:29;23.03;;;16.60;;
21876;SDS011;11103;43.788;23.710;2023-05-19T01:47:57;23.10;;;16.40;;
21876;SDS011;11103;43.788;23.710;2023-05-19T01:50:24;27.93;;;16.40;;
21876;SDS011;11103;43.788;23.710;2023-05-19T01:52:50;29.83;;;17.83;;
21876;SDS011;11103;43.788;23.710;2023-05-19T01:55:16;24.63;;;16.93;;
21876;SDS011;11103;43.788;23.710;2023-05-19T01:57:45;24.80;;;15.97;;
21876;SDS011;11103;43.788;23.710;2023-05-19T02:08:32;24.70;;;16.83;;
21876;SDS011;11103;43.788;23.710;2023-05-19T02:14:28;25.40;;;16.93;;
21876;SDS011;11103;43.788;23.710;2023-05-19T02:16:59;30.80;;;17.47;;
21876;SDS011;11103;43.788;23.710;2023-05-19T02:19:28;25.77;;;17.73;;
21876;SDS011;11103;43.788;23.710;2023-05-19T02:21:56;22.57;;;16.37;;
21876;SDS011;11103;43.788;23.710;2023-05-19T02:24:22;26.43;;;17.53;;
21876;SDS011;11103;43.788;23.710;2023-05-19T02:26:51;26.83;;;17.20;;
21876;SDS011;11103;43.788;23.710;2023-05-19T02:29:18;28.17;;;17.63;;
21876;SDS011;11103;43.788;23.710;2023-05-19T02:31:44;26.53;;;18.03;;
21876;SDS011;11103;43.788;23.710;2023-05-19T02:34:09;21.53;;;15.87;;
21876;SDS011;11103;43.788;23.710;2023-05-19T02:36:35;26.70;;;17.30;;
21876;SDS011;11103;43.788;23.710;2023-05-19T02:39:03;24.57;;;16.63;;
21876;SDS011;11103;43.788;23.710;2023-05-19T02:41:29;27.73;;;17.77;;
21876;SDS011;11103;43.788;23.710;2023-05-19T02:43:55;28.73;;;16.80;;
21876;SDS011;11103;43.788;23.710;2023-05-19T02:46:20;25.90;;;16.90;;
21876;SDS011;11103;43.788;23.710;2023-05-19T02:48:46;26.23;;;16.27;;
21876;SDS011;11103;43.788;23.710;2023-05-19T02:51:11;24.93;;;16.37;;
21876;SDS011;11103;43.788;23.710;2023-05-19T02:53:37;24.53;;;17.30;;
21876;SDS011;11103;43.788;23.710;2023-05-19T02:56:02;23.23;;;16.53;;
21876;SDS011;11103;43.788;23.710;2023-05-19T02:58:28;26.37;;;17.20;;
21876;SDS011;11103;43.788;23.710;2023-05-19T03:00:53;25.07;;;17.30;;
21876;SDS011;11103;43.788;23.710;2023-05-19T03:03:20;24.67;;;16.80;;
21876;SDS011;11103;43.788;23.710;2023-05-19T03:05:45;24.53;;;17.23;;
21876;SDS011;11103;43.788;23.710;2023-05-19T03:08:11;25.57;;;17.13;;
21876;SDS011;11103;43.788;23.710;2023-05-19T03:10:36;24.60;;;16.57;;
21876;SDS011;11103;43.788;23.710;2023-05-19T03:13:02;27.97;;;17.23;;
21876;SDS011;11103;43.788;23.710;2023-05-19T03:15:27;25.57;;;15.80;;
21876;SDS011;11103;43.788;23.710;2023-05-19T03:17:52;24.93;;;17.20;;
21876;SDS011;11103;43.788;23.710;2023-05-19T03:20:18;27.30;;;16.70;;
21876;SDS011;11103;43.788;23.710;2023-05-19T03:22:43;22.10;;;15.83;;
21876;SDS011;11103;43.788;23.710;2023-05-19T03:25:09;27.33;;;17.57;;
21876;SDS011;11103;43.788;23.710;2023-05-19T03:27:34;24.67;;;15.97;;
21876;SDS011;11103;43.788;23.710;2023-05-19T03:29:59;22.63;;;16.17;;
21876;SDS011;11103;43.788;23.710;2023-05-19T03:32:25;24.13;;;16.93;;
21876;SDS011;11103;43.788;23.710;2023-05-19T03:34:50;26.47;;;16.30;;
21876;SDS011;11103;43.788;23.710;2023-05-19T03:37:16;21.90;;;15.70;;
21876;SDS011;11103;43.788;23.710;2023-05-19T03:39:41;25.40;;;16.37;;
21876;SDS011;11103;43.788;23.710;2023-05-19T03:42:07;22.00;;;15.47;;
21876;SDS011;11103;43.788;23.710;2023-05-19T03:44:32;24.90;;;16.27;;
21876;SDS011;11103;43.788;23.710;2023-05-19T03:46:58;22.30;;;15.37;;
21876;SDS011;11103;43.788;23.710;2023-05-19T03:49:23;21.77;;;14.83;;
21876;SDS011;11103;43.788;23.710;2023-05-19T03:51:49;26.33;;;14.93;;
21876;SDS011;11103;43.788;23.710;2023-05-19T03:54:15;24.00;;;15.97;;
21876;SDS011;11103;43.788;23.710;2023-05-19T03:56:40;26.50;;;15.87;;
21876;SDS011;11103;43.788;23.710;2023-05-19T03:59:06;25.47;;;16.30;;
21876;SDS011;11103;43.788;23.710;2023-05-19T04:01:32;23.63;;;16.63;;
21876;SDS011;11103;43.788;23.710;2023-05-19T04:03:58;24.50;;;14.83;;
21876;SDS011;11103;43.788;23.710;2023-05-19T04:06:23;21.20;;;14.20;;
21876;SDS011;11103;43.788;23.710;2023-05-19T04:08:49;23.17;;;14.87;;
21876;SDS011;11103;43.788;23.710;2023-05-19T04:11:14;27.03;;;15.23;;
21876;SDS011;11103;43.788;23.710;2023-05-19T04:13:40;22.60;;;14.73;;
21876;SDS011;11103;43.788;23.710;2023-05-19T04:16:05;20.10;;;14.47;;
21876;SDS011;11103;43.788;23.710;2023-05-19T04:18:31;20.73;;;15.63;;
21876;SDS011;11103;43.788;23.710;2023-05-19T04:20:56;20.57;;;14.53;;
21876;SDS011;11103;43.788;23.710;2023-05-19T04:23:22;18.60;;;14.00;;
21876;SDS011;11103;43.788;23.710;2023-05-19T04:25:47;20.27;;;15.27;;
21876;SDS011;11103;43.788;23.710;2023-05-19T04:28:13;19.47;;;14.93;;
21876;SDS011;11103;43.788;23.710;2023-05-19T04:30:39;23.90;;;14.60;;
21876;SDS011;11103;43.788;23.710;2023-05-19T04:33:06;23.40;;;14.77;;
21876;SDS011;11103;43.788;23.710;2023-05-19T04:35:31;26.17;;;15.43;;
21876;SDS011;11103;43.788;23.710;2023-05-19T04:37:57;19.00;;;13.43;;
21876;SDS011;11103;43.788;23.710;2023-05-19T04:40:22;20.80;;;14.77;;
21876;SDS011;11103;43.788;23.710;2023-05-19T04:42:48;23.50;;;14.07;;
21876;SDS011;11103;43.788;23.710;2023-05-19T04:45:16;22.10;;;14.73;;
21876;SDS011;11103;43.788;23.710;2023-05-19T04:47:41;20.47;;;14.40;;
21876;SDS011;11103;43.788;23.710;2023-05-19T04:50:08;24.90;;;14.23;;
21876;SDS011;11103;43.788;23.710;2023-05-19T04:52:35;20.23;;;13.43;;
21876;SDS011;11103;43.788;23.710;2023-05-19T04:55:00;20.27;;;13.33;;
21876;SDS011;11103;43.788;23.710;2023-05-19T04:57:25;18.93;;;12.93;;
21876;SDS011;11103;43.788;23.710;2023-05-19T04:59:51;17.50;;;12.93;;
21876;SDS011;11103;43.788;23.710;2023-05-19T05:02:17;18.17;;;12.53;;
21876;SDS011;11103;43.788;23.710;2023-05-19T05:04:42;14.70;;;12.27;;
21876;SDS011;11103;43.788;23.710;2023-05-19T05:07:08;17.60;;;11.83;;
21876;SDS011;11103;43.788;23.710;2023-05-19T05:09:34;21.03;;;12.00;;
21876;SDS011;11103;43.788;23.710;2023-05-19T05:12:00;17.10;;;12.27;;
21876;SDS011;11103;43.788;23.710;2023-05-19T05:14:27;25.17;;;12.73;;
21876;SDS011;11103;43.788;23.710;2023-05-19T05:16:52;18.27;;;12.03;;
21876;SDS011;11103;43.788;23.710;2023-05-19T05:19:18;15.50;;;11.83;;
21876;SDS011;11103;43.788;23.710;2023-05-19T05:21:46;16.63;;;11.50;;
21876;SDS011;11103;43.788;23.710;2023-05-19T05:24:12;16.13;;;12.70;;
21876;SDS011;11103;43.788;23.710;2023-05-19T05:26:38;22.13;;;13.40;;
21876;SDS011;11103;43.788;23.710;2023-05-19T05:29:03;20.20;;;12.80;;
21876;SDS011;11103;43.788;23.710;2023-05-19T05:31:29;17.87;;;12.50;;
21876;SDS011;11103;43.788;23.710;2023-05-19T05:33:55;20.07;;;13.27;;
21876;SDS011;11103;43.788;23.710;2023-05-19T05:36:20;16.03;;;11.77;;
21876;SDS011;11103;43.788;23.710;2023-05-19T05:38:46;17.10;;;12.53;;
21876;SDS011;11103;43.788;23.710;2023-05-19T05:41:11;17.60;;;13.03;;
21876;SDS011;11103;43.788;23.710;2023-05-19T05:43:37;17.17;;;11.80;;
21876;SDS011;11103;43.788;23.710;2023-05-19T05:46:02;15.33;;;11.67;;
21876;SDS011;11103;43.788;23.710;2023-05-19T05:48:27;18.50;;;11.50;;
21876;SDS011;11103;43.788;23.710;2023-05-19T05:50:54;13.43;;;11.53;;
21876;SDS011;11103;43.788;23.710;2023-05-19T05:53:20;12.93;;;10.67;;
21876;SDS011;11103;43.788;23.710;2023-05-19T05:55:48;14.77;;;10.87;;
21876;SDS011;11103;43.788;23.710;2023-05-19T05:58:15;14.37;;;10.47;;
21876;SDS011;11103;43.788;23.710;2023-05-19T06:00:41;14.70;;;10.93;;
21876;SDS011;11103;43.788;23.710;2023-05-19T06:03:07;19.70;;;11.67;;
21876;SDS011;11103;43.788;23.710;2023-05-19T06:05:34;19.80;;;11.30;;
21876;SDS011;11103;43.788;23.710;2023-05-19T06:07:59;13.50;;;10.57;;
21876;SDS011;11103;43.788;23.710;2023-05-19T06:10:25;15.93;;;11.10;;
21876;SDS011;11103;43.788;23.710;2023-05-19T06:12:50;17.83;;;11.63;;
21876;SDS011;11103;43.788;23.710;2023-05-19T06:15:15;16.13;;;11.40;;
21876;SDS011;11103;43.788;23.710;2023-05-19T06:17:41;15.87;;;11.23;;
21876;SDS011;11103;43.788;23.710;2023-05-19T06:20:06;15.60;;;11.00;;
21876;SDS011;11103;43.788;23.710;2023-05-19T06:22:35;12.97;;;10.90;;
21876;SDS011;11103;43.788;23.710;2023-05-19T06:25:01;19.60;;;11.57;;
21876;SDS011;11103;43.788;23.710;2023-05-19T06:27:27;13.53;;;10.90;;
21876;SDS011;11103;43.788;23.710;2023-05-19T06:29:53;15.90;;;11.10;;
21876;SDS011;11103;43.788;23.710;2023-05-19T06:32:18;16.43;;;10.93;;
21876;SDS011;11103;43.788;23.710;2023-05-19T06:34:43;16.23;;;11.70;;
21876;SDS011;11103;43.788;23.710;2023-05-19T06:37:09;16.07;;;11.60;;
21876;SDS011;11103;43.788;23.710;2023-05-19T06:39:36;15.07;;;9.70;;
21876;SDS011;11103;43.788;23.710;2023-05-19T06:42:03;13.67;;;10.77;;
21876;SDS011;11103;43.788;23.710;2023-05-19T06:44:29;14.93;;;10.87;;
21876;SDS011;11103;43.788;23.710;2023-05-19T06:46:54;16.43;;;10.90;;
21876;SDS011;11103;43.788;23.710;2023-05-19T06:49:19;16.67;;;11.37;;
21876;SDS011;11103;43.788;23.710;2023-05-19T06:51:45;13.93;;;10.80;;
21876;SDS011;11103;43.788;23.710;2023-05-19T06:54:11;15.87;;;11.10;;
21876;SDS011;11103;43.788;23.710;2023-05-19T06:56:39;14.27;;;11.97;;
21876;SDS011;11103;43.788;23.710;2023-05-19T06:59:05;13.97;;;11.30;;
21876;SDS011;11103;43.788;23.710;2023-05-19T07:01:30;18.90;;;11.07;;
21876;SDS011;11103;43.788;23.710;2023-05-19T07:03:56;15.50;;;11.03;;
21876;SDS011;11103;43.788;23.710;2023-05-19T07:06:21;18.37;;;12.00;;
21876;SDS011;11103;43.788;23.710;2023-05-19T07:08:46;13.73;;;11.37;;
21876;SDS011;11103;43.788;23.710;2023-05-19T07:11:12;15.90;;;11.60;;
21876;SDS011;11103;43.788;23.710;2023-05-19T07:13:38;14.43;;;11.23;;
21876;SDS011;11103;43.788;23.710;2023-05-19T07:16:03;18.67;;;11.27;;
21876;SDS011;11103;43.788;23.710;2023-05-19T07:18:29;14.87;;;11.90;;
21876;SDS011;11103;43.788;23.710;2023-05-19T07:20:57;15.07;;;11.50;;
21876;SDS011;11103;43.788;23.710;2023-05-19T07:23:23;20.33;;;12.27;;
21876;SDS011;11103;43.788;23.710;2023-05-19T07:25:48;15.40;;;11.50;;
21876;SDS011;11103;43.788;23.710;2023-05-19T07:28:14;16.60;;;11.27;;
21876;SDS011;11103;43.788;23.710;2023-05-19T07:30:39;16.40;;;11.10;;
21876;SDS011;11103;43.788;23.710;2023-05-19T07:33:05;13.37;;;11.47;;
21876;SDS011;11103;43.788;23.710;2023-05-19T07:35:30;16.37;;;11.50;;
21876;SDS011;11103;43.788;23.710;2023-05-19T07:37:56;17.27;;;12.10;;
21876;SDS011;11103;43.788;23.710;2023-05-19T07:40:21;19.67;;;11.67;;
21876;SDS011;11103;43.788;23.710;2023-05-19T07:42:48;16.30;;;11.93;;
21876;SDS011;11103;43.788;23.710;2023-05-19T07:45:13;15.27;;;12.17;;
21876;SDS011;11103;43.788;23.710;2023-05-19T07:47:39;15.87;;;12.20;;
21876;SDS011;11103;43.788;23.710;2023-05-19T07:50:05;15.70;;;12.30;;
21876;SDS011;11103;43.788;23.710;2023-05-19T07:52:31;17.93;;;12.23;;
21876;SDS011;11103;43.788;23.710;2023-05-19T07:54:57;13.57;;;11.57;;
21876;SDS011;11103;43.788;23.710;2023-05-19T07:57:23;17.93;;;11.30;;
21876;SDS011;11103;43.788;23.710;2023-05-19T07:59:48;15.97;;;12.03;;
21876;SDS011;11103;43.788;23.710;2023-05-19T08:02:14;16.67;;;12.03;;
21876;SDS011;11103;43.788;23.710;2023-05-19T08:04:40;13.47;;;11.57;;
21876;SDS011;11103;43.788;23.710;2023-05-19T08:07:05;14.67;;;10.83;;
21876;SDS011;11103;43.788;23.710;2023-05-19T08:09:30;12.63;;;10.77;;
21876;SDS011;11103;43.788;23.710;2023-05-19T08:11:56;14.80;;;11.80;;
21876;SDS011;11103;43.788;23.710;2023-05-19T08:14:22;13.87;;;11.47;;
21876;SDS011;11103;43.788;23.710;2023-05-19T08:16:47;13.63;;;11.60;;
21876;SDS011;11103;43.788;23.710;2023-05-19T08:19:13;14.30;;;11.07;;
21876;SDS011;11103;43.788;23.710;2023-05-19T08:21:39;14.17;;;10.80;;
21876;SDS011;11103;43.788;23.710;2023-05-19T08:24:06;14.03;;;10.27;;
21876;SDS011;11103;43.788;23.710;2023-05-19T08:26:32;14.83;;;11.10;;
21876;SDS011;11103;43.788;23.710;2023-05-19T08:28:57;19.03;;;11.17;;
21876;SDS011;11103;43.788;23.710;2023-05-19T08:31:22;12.67;;;11.10;;
21876;SDS011;11103;43.788;23.710;2023-05-19T08:33:48;16.67;;;10.87;;
21876;SDS011;11103;43.788;23.710;2023-05-19T08:36:14;12.23;;;10.53;;
21876;SDS011;11103;43.788;23.710;2023-05-19T08:38:39;16.37;;;11.27;;
21876;SDS011;11103;43.788;23.710;2023-05-19T08:41:05;12.77;;;11.03;;
21876;SDS011;11103;43.788;23.710;2023-05-19T08:43:31;12.57;;;9.90;;
21876;SDS011;11103;43.788;23.710;2023-05-19T08:45:56;15.60;;;10.10;;
21876;SDS011;11103;43.788;23.710;2023-05-19T08:48:23;15.83;;;10.97;;
21876;SDS011;11103;43.788;23.710;2023-05-19T08:50:56;14.37;;;11.33;;
21876;SDS011;11103;43.788;23.710;2023-05-19T08:53:35;13.53;;;10.73;;
21876;SDS011;11103;43.788;23.710;2023-05-19T08:56:04;12.17;;;10.87;;
21876;SDS011;11103;43.788;23.710;2023-05-19T08:58:35;14.13;;;11.00;;
21876;SDS011;11103;43.788;23.710;2023-05-19T09:01:06;13.77;;;10.73;;
21876;SDS011;11103;43.788;23.710;2023-05-19T09:03:32;19.47;;;11.50;;
21876;SDS011;11103;43.788;23.710;2023-05-19T09:06:05;16.17;;;11.67;;
21876;SDS011;11103;43.788;23.710;2023-05-19T09:08:32;14.97;;;11.40;;
21876;SDS011;11103;43.788;23.710;2023-05-19T09:11:01;16.47;;;10.87;;
21876;SDS011;11103;43.788;23.710;2023-05-19T09:13:27;14.30;;;11.60;;
21876;SDS011;11103;43.788;23.710;2023-05-19T09:15:52;17.20;;;11.60;;
21876;SDS011;11103;43.788;23.710;2023-05-19T09:18:20;14.47;;;10.97;;
21876;SDS011;11103;43.788;23.710;2023-05-19T09:20:48;15.03;;;10.90;;
21876;SDS011;11103;43.788;23.710;2023-05-19T09:23:15;14.10;;;10.83;;
21876;SDS011;11103;43.788;23.710;2023-05-19T09:25:51;16.73;;;11.87;;
21876;SDS011;11103;43.788;23.710;2023-05-19T09:30:57;18.17;;;11.30;;
21876;SDS011;11103;43.788;23.710;2023-05-19T09:33:23;18.50;;;12.03;;
21876;SDS011;11103;43.788;23.710;2023-05-19T09:35:48;13.47;;;11.33;;
21876;SDS011;11103;43.788;23.710;2023-05-19T09:38:17;15.70;;;10.77;;
21876;SDS011;11103;43.788;23.710;2023-05-19T09:40:43;14.00;;;10.87;;
21876;SDS011;11103;43.788;23.710;2023-05-19T09:43:08;15.73;;;11.10;;
21876;SDS011;11103;43.788;23.710;2023-05-19T09:45:34;16.03;;;11.87;;
21876;SDS011;11103;43.788;23.710;2023-05-19T09:48:02;17.60;;;11.37;;
21876;SDS011;11103;43.788;23.710;2023-05-19T09:50:28;15.83;;;11.03;;
21876;SDS011;11103;43.788;23.710;2023-05-19T09:52:54;15.43;;;10.90;;
21876;SDS011;11103;43.788;23.710;2023-05-19T09:55:21;18.53;;;11.43;;
21876;SDS011;11103;43.788;23.710;2023-05-19T09:57:50;15.30;;;11.43;;
21876;SDS011;11103;43.788;23.710;2023-05-19T10:00:20;14.20;;;11.87;;
21876;SDS011;11103;43.788;23.710;2023-05-19T10:02:47;15.80;;;12.07;;
21876;SDS011;11103;43.788;23.710;2023-05-19T10:05:15;18.33;;;12.23;;
21876;SDS011;11103;43.788;23.710;2023-05-19T10:07:44;14.50;;;10.43;;
21876;SDS011;11103;43.788;23.710;2023-05-19T10:10:13;13.57;;;11.00;;
21876;SDS011;11103;43.788;23.710;2023-05-19T10:12:39;19.17;;;11.33;;
21876;SDS011;11103;43.788;23.710;2023-05-19T10:15:09;13.20;;;11.17;;
21876;SDS011;11103;43.788;23.710;2023-05-19T10:17:39;15.40;;;10.77;;
21876;SDS011;11103;43.788;23.710;2023-05-19T10:20:15;14.30;;;10.80;;
21876;SDS011;11103;43.788;23.710;2023-05-19T10:22:42;20.17;;;11.90;;
21876;SDS011;11103;43.788;23.710;2023-05-19T10:25:09;14.93;;;11.80;;
21876;SDS011;11103;43.788;23.710;2023-05-19T10:27:56;16.03;;;10.80;;
21876;SDS011;11103;43.788;23.710;2023-05-19T10:30:28;15.43;;;12.67;;
21876;SDS011;11103;43.788;23.710;2023-05-19T10:33:08;15.70;;;12.33;;
21876;SDS011;11103;43.788;23.710;2023-05-19T10:35:58;15.10;;;11.77;;
21876;SDS011;11103;43.788;23.710;2023-05-19T10:38:40;15.37;;;11.17;;
21876;SDS011;11103;43.788;23.710;2023-05-19T10:41:18;18.77;;;11.80;;
21876;SDS011;11103;43.788;23.710;2023-05-19T10:44:06;15.73;;;12.33;;
21876;SDS011;11103;43.788;23.710;2023-05-19T10:46:36;18.50;;;11.37;;
21876;SDS011;11103;43.788;23.710;2023-05-19T10:49:06;19.60;;;11.73;;
21876;SDS011;11103;43.788;23.710;2023-05-19T10:51:32;17.40;;;12.83;;
21876;SDS011;11103;43.788;23.710;2023-05-19T10:54:00;14.73;;;11.33;;
21876;SDS011;11103;43.788;23.710;2023-05-19T10:56:32;15.30;;;11.07;;
21876;SDS011;11103;43.788;23.710;2023-05-19T10:59:00;13.10;;;11.10;;
21876;SDS011;11103;43.788;23.710;2023-05-19T11:01:30;16.30;;;10.20;;
21876;SDS011;11103;43.788;23.710;2023-05-19T11:04:01;12.73;;;10.20;;
21876;SDS011;11103;43.788;23.710;2023-05-19T11:06:30;12.07;;;10.50;;
21876;SDS011;11103;43.788;23.710;2023-05-19T11:11:21;14.80;;;11.60;;
21876;SDS011;11103;43.788;23.710;2023-05-19T11:13:50;22.77;;;11.37;;
21876;SDS011;11103;43.788;23.710;2023-05-19T11:16:18;13.27;;;10.23;;
21876;SDS011;11103;43.788;23.710;2023-05-19T11:18:52;16.93;;;11.67;;
21876;SDS011;11103;43.788;23.710;2023-05-19T11:21:18;14.97;;;10.73;;
21876;SDS011;11103;43.788;23.710;2023-05-19T11:23:44;12.83;;;9.83;;
21876;SDS011;11103;43.788;23.710;2023-05-19T11:26:09;13.63;;;10.00;;
21876;SDS011;11103;43.788;23.710;2023-05-19T11:28:36;12.13;;;9.60;;
21876;SDS011;11103;43.788;23.710;2023-05-19T11:31:03;15.87;;;10.17;;
21876;SDS011;11103;43.788;23.710;2023-05-19T11:33:31;15.50;;;10.47;;
21876;SDS011;11103;43.788;23.710;2023-05-19T11:35:57;16.07;;;10.37;;
21876;SDS011;11103;43.788;23.710;2023-05-19T11:38:23;13.00;;;10.27;;
21876;SDS011;11103;43.788;23.710;2023-05-19T11:40:51;12.63;;;9.80;;
21876;SDS011;11103;43.788;23.710;2023-05-19T11:43:17;14.10;;;9.70;;
21876;SDS011;11103;43.788;23.710;2023-05-19T11:45:43;15.80;;;10.63;;
21876;SDS011;11103;43.788;23.710;2023-05-19T11:48:12;14.70;;;10.83;;
21876;SDS011;11103;43.788;23.710;2023-05-19T11:50:39;15.40;;;10.47;;
21876;SDS011;11103;43.788;23.710;2023-05-19T11:53:06;12.93;;;10.33;;
21876;SDS011;11103;43.788;23.710;2023-05-19T11:55:36;14.27;;;9.97;;
21876;SDS011;11103;43.788;23.710;2023-05-19T11:58:07;13.07;;;10.00;;
21876;SDS011;11103;43.788;23.710;2023-05-19T12:00:34;13.17;;;10.60;;
21876;SDS011;11103;43.788;23.710;2023-05-19T12:03:03;15.27;;;10.70;;
21876;SDS011;11103;43.788;23.710;2023-05-19T12:05:29;14.33;;;10.30;;
21876;SDS011;11103;43.788;23.710;2023-05-19T12:07:55;12.17;;;10.20;;
21876;SDS011;11103;43.788;23.710;2023-05-19T12:10:30;11.80;;;9.80;;
21876;SDS011;11103;43.788;23.710;2023-05-19T12:12:58;12.57;;;9.47;;
21876;SDS011;11103;43.788;23.710;2023-05-19T12:15:24;13.23;;;10.27;;
21876;SDS011;11103;43.788;23.710;2023-05-19T12:17:50;18.07;;;10.80;;
21876;SDS011;11103;43.788;23.710;2023-05-19T12:20:20;16.77;;;10.83;;
21876;SDS011;11103;43.788;23.710;2023-05-19T12:22:46;16.10;;;10.60;;
21876;SDS011;11103;43.788;23.710;2023-05-19T12:25:12;16.17;;;10.10;;
21876;SDS011;11103;43.788;23.710;2023-05-19T12:27:41;14.10;;;10.43;;
21876;SDS011;11103;43.788;23.710;2023-05-19T12:30:07;15.43;;;10.60;;
21876;SDS011;11103;43.788;23.710;2023-05-19T12:32:33;14.47;;;10.03;;
21876;SDS011;11103;43.788;23.710;2023-05-19T12:35:01;12.30;;;9.93;;
21876;SDS011;11103;43.788;23.710;2023-05-19T12:37:28;15.83;;;10.67;;
21876;SDS011;11103;43.788;23.710;2023-05-19T12:39:54;14.07;;;10.17;;
21876;SDS011;11103;43.788;23.710;2023-05-19T12:42:20;11.83;;;10.03;;
21876;SDS011;11103;43.788;23.710;2023-05-19T12:44:48;11.30;;;9.23;;
21876;SDS011;11103;43.788;23.710;2023-05-19T12:47:15;12.40;;;9.13;;
21876;SDS011;11103;43.788;23.710;2023-05-19T12:49:53;16.93;;;10.23;;
21876;SDS011;11103;43.788;23.710;2023-05-19T12:52:19;12.30;;;9.77;;
21876;SDS011;11103;43.788;23.710;2023-05-19T12:54:47;14.53;;;10.53;;
21876;SDS011;11103;43.788;23.710;2023-05-19T12:57:14;12.87;;;9.90;;
21876;SDS011;11103;43.788;23.710;2023-05-19T12:59:41;15.17;;;9.73;;
21876;SDS011;11103;43.788;23.710;2023-05-19T13:02:06;13.20;;;9.87;;
21876;SDS011;11103;43.788;23.710;2023-05-19T13:04:32;12.30;;;9.80;;
21876;SDS011;11103;43.788;23.710;2023-05-19T13:06:57;22.03;;;10.30;;
21876;SDS011;11103;43.788;23.710;2023-05-19T13:09:23;12.60;;;9.57;;
21876;SDS011;11103;43.788;23.710;2023-05-19T13:11:48;15.30;;;10.37;;
21876;SDS011;11103;43.788;23.710;2023-05-19T13:14:15;12.80;;;9.23;;
21876;SDS011;11103;43.788;23.710;2023-05-19T13:16:44;12.10;;;9.87;;
21876;SDS011;11103;43.788;23.710;2023-05-19T13:19:11;11.73;;;9.50;;
21876;SDS011;11103;43.788;23.710;2023-05-19T13:21:42;13.37;;;9.43;;
21876;SDS011;11103;43.788;23.710;2023-05-19T13:24:08;10.97;;;9.53;;
21876;SDS011;11103;43.788;23.710;2023-05-19T13:26:33;13.40;;;9.53;;
21876;SDS011;11103;43.788;23.710;2023-05-19T13:28:59;13.83;;;9.73;;
21876;SDS011;11103;43.788;23.710;2023-05-19T13:31:26;13.03;;;8.97;;
21876;SDS011;11103;43.788;23.710;2023-05-19T13:33:51;12.17;;;9.33;;
21876;SDS011;11103;43.788;23.710;2023-05-19T13:36:17;10.10;;;9.00;;
21876;SDS011;11103;43.788;23.710;2023-05-19T13:38:42;13.47;;;9.57;;
21876;SDS011;11103;43.788;23.710;2023-05-19T13:41:07;13.07;;;10.10;;
21876;SDS011;11103;43.788;23.710;2023-05-19T13:43:33;13.17;;;9.87;;
21876;SDS011;11103;43.788;23.710;2023-05-19T13:45:59;16.57;;;9.57;;
21876;SDS011;11103;43.788;23.710;2023-05-19T13:48:24;12.93;;;9.97;;
21876;SDS011;11103;43.788;23.710;2023-05-19T13:50:50;15.27;;;10.03;;
21876;SDS011;11103;43.788;23.710;2023-05-19T13:53:18;15.40;;;9.97;;
21876;SDS011;11103;43.788;23.710;2023-05-19T13:55:43;18.20;;;10.23;;
21876;SDS011;11103;43.788;23.710;2023-05-19T13:58:09;14.10;;;10.50;;
21876;SDS011;11103;43.788;23.710;2023-05-19T14:00:35;13.30;;;9.80;;
21876;SDS011;11103;43.788;23.710;2023-05-19T14:03:00;13.20;;;9.70;;
21876;SDS011;11103;43.788;23.710;2023-05-19T14:05:26;14.53;;;10.10;;
21876;SDS011;11103;43.788;23.710;2023-05-19T14:07:52;13.40;;;9.57;;
21876;SDS011;11103;43.788;23.710;2023-05-19T14:10:18;15.23;;;9.90;;
21876;SDS011;11103;43.788;23.710;2023-05-19T14:12:44;14.53;;;9.67;;
21876;SDS011;11103;43.788;23.710;2023-05-19T14:15:09;12.57;;;8.83;;
21876;SDS011;11103;43.788;23.710;2023-05-19T14:17:34;14.80;;;9.70;;
21876;SDS011;11103;43.788;23.710;2023-05-19T14:20:00;10.53;;;9.10;;
21876;SDS011;11103;43.788;23.710;2023-05-19T14:22:25;17.23;;;9.27;;
21876;SDS011;11103;43.788;23.710;2023-05-19T14:24:51;14.40;;;9.83;;
21876;SDS011;11103;43.788;23.710;2023-05-19T14:27:16;18.20;;;10.93;;
21876;SDS011;11103;43.788;23.710;2023-05-19T14:29:42;17.40;;;12.10;;
21876;SDS011;11103;43.788;23.710;2023-05-19T14:32:07;16.57;;;10.67;;
21876;SDS011;11103;43.788;23.710;2023-05-19T14:34:33;20.17;;;9.40;;